Terminal Aerodrome Forecast
Issued by NWS Jackson, MS

Home | Current Version | Previous Version | Text Only | Print | Product List | Glossary On
Versions: 1 2 3 4 5 6 7 8 9 10 11 12 13
087
FTUS44 KJAN 261725
TAFGLH
TAF
KGLH 261725Z 2618/2718 14011G20KT P6SM SKC
     FM270000 16007KT P6SM SCT090
     FM270700 16008KT 6SM SHRA VCTS OVC050CB
     FM271100 13007KT 3SM SHRA BR VCTS BKN015CB OVC025
     FM271400 13008KT 5SM -SHRA BR BKN008 BKN050=

USA.gov is the U.S. government's official web portal to all federal, state and local government web resources and services.